createdAt,value
2023-02-26T00:01:41.570Z,-0.30
2023-02-26T00:04:11.396Z,-0.30
2023-02-26T00:06:52.296Z,-0.30
2023-02-26T00:09:21.074Z,-0.40
2023-02-26T00:11:50.017Z,-0.50
2023-02-26T00:14:19.894Z,-0.40
2023-02-26T00:16:51.994Z,-0.50
2023-02-26T00:19:20.218Z,-0.50
2023-02-26T00:21:48.805Z,-0.50
2023-02-26T00:24:16.655Z,-0.50
2023-02-26T00:26:44.508Z,-0.40
2023-02-26T00:29:12.873Z,-0.40
2023-02-26T00:31:42.845Z,-0.40
2023-02-26T00:34:13.796Z,-0.40
2023-02-26T00:36:47.837Z,-0.40
2023-02-26T00:39:32.375Z,-0.40
2023-02-26T00:42:00.688Z,-0.30
2023-02-26T00:44:28.999Z,-0.30
2023-02-26T00:47:05.027Z,-0.30
2023-02-26T00:49:46.059Z,-0.30
2023-02-26T00:52:19.590Z,-0.30
2023-02-26T00:54:47.394Z,-0.30
2023-02-26T00:57:15.248Z,-0.30
2023-02-26T00:59:43.052Z,-0.20
2023-02-26T01:02:12.481Z,-0.20
2023-02-26T01:04:41.542Z,-0.20
2023-02-26T01:07:11.245Z,-0.20
2023-02-26T01:09:39.813Z,-0.20
2023-02-26T01:12:11.037Z,-0.30
2023-02-26T01:14:39.699Z,-0.30
2023-02-26T01:17:15.951Z,-0.20
2023-02-26T01:19:50.495Z,-0.20
2023-02-26T01:22:23.317Z,-0.20
2023-02-26T01:24:56.544Z,-0.20
2023-02-26T01:27:24.761Z,-0.20
2023-02-26T01:29:53.141Z,-0.20
2023-02-26T01:32:26.246Z,-0.10
2023-02-26T01:35:00.971Z,-0.10
2023-02-26T01:37:34.609Z,-0.10
2023-02-26T01:40:28.242Z,-0.10
2023-02-26T01:43:04.104Z,-0.10
2023-02-26T01:45:35.687Z,0.00
2023-02-26T01:48:07.735Z,0.00
2023-02-26T01:50:39.393Z,0.10
2023-02-26T01:53:21.940Z,0.10
2023-02-26T01:55:53.769Z,0.10
2023-02-26T01:58:23.707Z,0.20
2023-02-26T02:00:52.069Z,0.20
2023-02-26T02:03:21.328Z,0.20
2023-02-26T02:05:54.710Z,0.20
2023-02-26T02:08:23.343Z,0.20
2023-02-26T02:10:53.358Z,0.20
2023-02-26T02:13:32.826Z,0.20
2023-02-26T02:16:17.344Z,0.20
2023-02-26T02:18:54.576Z,0.20
2023-02-26T02:21:49.073Z,0.20
2023-02-26T02:24:25.143Z,0.20
2023-02-26T02:27:04.269Z,0.20
2023-02-26T02:30:10.349Z,0.10
2023-02-26T02:32:42.830Z,0.10
2023-02-26T02:35:16.803Z,0.20
2023-02-26T02:37:49.617Z,0.20
2023-02-26T02:40:21.988Z,0.20
2023-02-26T02:42:56.358Z,0.20
2023-02-26T02:45:28.480Z,0.20
2023-02-26T02:48:02.626Z,0.20
2023-02-26T02:50:35.123Z,0.20
2023-02-26T02:53:08.464Z,0.20
2023-02-26T02:55:40.575Z,0.20
2023-02-26T02:58:12.707Z,0.20
2023-02-26T03:00:46.706Z,0.20
2023-02-26T03:03:22.707Z,0.20
2023-02-26T03:05:50.880Z,0.20
2023-02-26T03:08:23.169Z,0.20
2023-02-26T03:10:51.041Z,0.10
2023-02-26T03:13:21.018Z,0.10
2023-02-26T03:16:00.691Z,0.10
2023-02-26T03:18:42.656Z,0.10
2023-02-26T03:21:18.877Z,0.00
2023-02-26T03:23:54.018Z,0.00
2023-02-26T03:26:30.906Z,0.00
2023-02-26T03:29:04.723Z,-0.10
2023-02-26T03:31:36.885Z,-0.10
2023-02-26T03:34:09.804Z,-0.10
2023-02-26T03:36:41.771Z,-0.20
2023-02-26T03:39:13.853Z,-0.30
2023-02-26T03:41:45.819Z,-0.30
2023-02-26T03:44:19.398Z,-0.30
2023-02-26T03:46:52.744Z,-0.40
2023-02-26T03:49:27.186Z,-0.50
2023-02-26T03:51:55.724Z,-0.60
2023-02-26T03:54:27.638Z,-0.60
2023-02-26T03:56:55.888Z,-0.70
2023-02-26T03:59:24.677Z,-0.70
2023-02-26T04:01:57.548Z,-0.70
2023-02-26T04:04:30.146Z,-0.70
2023-02-26T04:06:58.314Z,-0.80
2023-02-26T04:09:26.746Z,-0.70
2023-02-26T04:11:55.782Z,-0.80
2023-02-26T04:14:23.708Z,-0.70
2023-02-26T04:16:51.643Z,-0.80
2023-02-26T04:19:19.648Z,-0.80
2023-02-26T04:21:49.024Z,-0.80
2023-02-26T04:24:16.966Z,-0.80
2023-02-26T04:26:45.387Z,-0.80
2023-02-26T04:29:13.231Z,-0.80
2023-02-26T04:31:42.021Z,-0.80
2023-02-26T04:34:09.932Z,-0.80
2023-02-26T04:36:37.771Z,-0.80
2023-02-26T04:39:07.126Z,-0.80
2023-02-26T04:41:35.023Z,-0.80
2023-02-26T04:44:03.920Z,-0.90
2023-02-26T04:46:31.936Z,-0.80
2023-02-26T04:48:59.827Z,-0.90
2023-02-26T04:51:27.725Z,-0.90
2023-02-26T04:53:55.546Z,-0.90
2023-02-26T04:56:25.093Z,-0.90
2023-02-26T04:58:53.088Z,-1.00
2023-02-26T05:01:20.920Z,-1.00
2023-02-26T05:03:48.770Z,-1.00
2023-02-26T05:06:16.635Z,-1.00
2023-02-26T05:08:44.434Z,-1.00
2023-02-26T05:11:13.104Z,-1.00
2023-02-26T05:13:42.390Z,-1.10
2023-02-26T05:16:10.501Z,-1.10
2023-02-26T05:18:38.883Z,-1.10
2023-02-26T05:21:07.115Z,-1.10
2023-02-26T05:23:35.029Z,-1.10
2023-02-26T05:26:03.181Z,-1.20
2023-02-26T05:28:33.799Z,-1.20
2023-02-26T05:31:03.433Z,-1.20
2023-02-26T05:33:31.393Z,-1.20
2023-02-26T05:35:59.399Z,-1.10
2023-02-26T05:38:27.229Z,-1.10
2023-02-26T05:40:58.202Z,-1.10
2023-02-26T05:43:26.654Z,-1.00
2023-02-26T05:45:55.463Z,-1.00
2023-02-26T05:48:25.201Z,-1.00
2023-02-26T05:50:53.738Z,-0.90
2023-02-26T05:53:21.609Z,-0.90
2023-02-26T05:55:50.355Z,-0.90
2023-02-26T05:58:18.179Z,-0.90
2023-02-26T06:00:46.673Z,-1.00
2023-02-26T06:03:14.659Z,-1.00
2023-02-26T06:05:43.965Z,-1.00
2023-02-26T06:08:12.104Z,-1.00
2023-02-26T06:10:39.945Z,-1.00
2023-02-26T06:13:07.809Z,-1.00
2023-02-26T06:15:35.724Z,-1.00
2023-02-26T06:18:03.672Z,-1.10
2023-02-26T06:20:31.542Z,-1.10
2023-02-26T06:23:00.714Z,-1.10
2023-02-26T06:25:28.693Z,-1.10
2023-02-26T06:27:56.958Z,-1.10
2023-02-26T06:30:24.944Z,-1.10
2023-02-26T06:32:52.878Z,-1.10
2023-02-26T06:35:20.772Z,-1.10
2023-02-26T06:37:49.764Z,-1.10
2023-02-26T06:40:19.766Z,-1.10
2023-02-26T06:42:47.599Z,-1.10
2023-02-26T06:45:15.871Z,-1.10
2023-02-26T06:47:43.833Z,-1.00
2023-02-26T06:50:12.863Z,-1.00
2023-02-26T06:52:40.657Z,-1.00
2023-02-26T06:55:09.557Z,-0.90
2023-02-26T06:57:38.882Z,-0.90
2023-02-26T07:00:08.429Z,-0.80
2023-02-26T07:02:36.643Z,-0.80
2023-02-26T07:05:04.643Z,-0.80
2023-02-26T07:07:32.472Z,-0.80
2023-02-26T07:10:00.322Z,-0.70
2023-02-26T07:12:28.213Z,-0.60
2023-02-26T07:14:57.424Z,-0.40
2023-02-26T07:17:25.267Z,-0.20
2023-02-26T07:19:53.888Z,-0.20
2023-02-26T07:22:22.513Z,-0.10
2023-02-26T07:24:51.134Z,0.00
2023-02-26T07:27:19.084Z,0.10
2023-02-26T07:29:46.952Z,0.20
2023-02-26T07:32:16.247Z,0.30
2023-02-26T07:34:44.128Z,0.30
2023-02-26T07:37:12.031Z,0.40
2023-02-26T07:39:39.919Z,0.50
2023-02-26T07:42:07.880Z,0.50
2023-02-26T07:44:35.757Z,0.70
2023-02-26T07:47:04.007Z,0.70
2023-02-26T07:49:34.129Z,0.90
2023-02-26T07:52:02.562Z,1.20
2023-02-26T07:54:30.445Z,1.30
2023-02-26T07:56:58.312Z,1.40
2023-02-26T07:59:26.138Z,1.40
2023-02-26T08:01:54.037Z,1.40
2023-02-26T08:04:21.970Z,1.40
2023-02-26T08:06:51.295Z,1.20
2023-02-26T08:09:19.213Z,1.00
2023-02-26T08:11:47.819Z,1.00
2023-02-26T08:14:15.842Z,0.80
2023-02-26T08:16:43.709Z,0.80
2023-02-26T08:19:11.763Z,0.70
2023-02-26T08:21:39.625Z,0.80
2023-02-26T08:24:08.903Z,0.80
2023-02-26T08:26:37.713Z,0.80
2023-02-26T08:29:06.629Z,0.80
2023-02-26T08:31:35.470Z,0.90
2023-02-26T08:34:04.024Z,0.80
2023-02-26T08:36:32.710Z,0.80
2023-02-26T08:39:00.604Z,0.90
2023-02-26T08:41:32.143Z,0.90
2023-02-26T08:44:01.148Z,1.00
2023-02-26T08:46:30.252Z,1.10
2023-02-26T08:48:58.303Z,1.20
2023-02-26T08:51:26.541Z,1.30
2023-02-26T08:53:54.513Z,1.50
2023-02-26T08:56:22.970Z,1.50
2023-02-26T08:58:52.282Z,1.70
2023-02-26T09:01:20.193Z,1.90
2023-02-26T09:03:48.291Z,2.10
2023-02-26T09:06:16.261Z,2.40
2023-02-26T09:08:44.226Z,2.60
2023-02-26T09:11:12.278Z,2.90
2023-02-26T09:13:40.188Z,3.20
2023-02-26T09:16:09.733Z,3.50
2023-02-26T09:18:37.935Z,3.50
2023-02-26T09:21:06.719Z,3.40
2023-02-26T09:23:34.616Z,3.10
2023-02-26T09:26:02.503Z,3.00
2023-02-26T09:28:30.419Z,3.00
2023-02-26T09:30:58.351Z,3.70
2023-02-26T09:33:27.609Z,4.60
2023-02-26T09:35:55.790Z,5.10
2023-02-26T09:38:23.686Z,4.70
2023-02-26T09:40:55.793Z,4.30
2023-02-26T09:43:45.461Z,4.00
2023-02-26T09:46:26.288Z,3.70
2023-02-26T09:49:04.330Z,3.60
2023-02-26T09:51:34.817Z,3.50
2023-02-26T09:54:07.627Z,3.60
2023-02-26T09:56:37.847Z,3.60
2023-02-26T09:59:05.817Z,3.60
2023-02-26T10:01:38.733Z,3.70
2023-02-26T10:04:17.790Z,3.70
2023-02-26T10:06:58.406Z,3.70
2023-02-26T10:09:35.870Z,4.00
2023-02-26T10:12:08.254Z,4.30
2023-02-26T10:14:41.098Z,4.50
2023-02-26T10:17:18.770Z,4.60
2023-02-26T10:19:52.481Z,4.90
2023-02-26T10:22:26.520Z,5.20
2023-02-26T10:25:00.978Z,5.30
2023-02-26T10:27:41.451Z,5.50
2023-02-26T10:30:15.504Z,5.90
2023-02-26T10:32:53.393Z,5.70
2023-02-26T10:35:26.505Z,5.40
2023-02-26T10:37:58.866Z,5.50
2023-02-26T10:40:32.406Z,5.40
2023-02-26T10:43:05.423Z,5.10
2023-02-26T10:45:44.542Z,4.80
2023-02-26T10:48:36.043Z,4.60
2023-02-26T10:51:14.012Z,4.60
2023-02-26T10:53:45.072Z,4.60
2023-02-26T10:56:17.935Z,4.50
2023-02-26T10:58:47.115Z,4.80
2023-02-26T11:01:18.698Z,5.00
2023-02-26T11:03:50.113Z,5.00
2023-02-26T11:06:23.806Z,5.00
2023-02-26T11:08:55.146Z,4.70
2023-02-26T11:11:43.003Z,4.70
2023-02-26T11:14:11.888Z,5.10
2023-02-26T11:16:48.674Z,4.90
2023-02-26T11:19:18.110Z,5.00
2023-02-26T11:21:48.895Z,5.30
2023-02-26T11:24:22.705Z,5.70
2023-02-26T11:26:52.251Z,5.80
2023-02-26T11:29:23.019Z,5.90
2023-02-26T11:31:52.683Z,5.60
2023-02-26T11:34:24.685Z,5.40
2023-02-26T11:36:58.124Z,5.10
2023-02-26T11:39:29.431Z,4.90
2023-02-26T11:41:59.881Z,4.80
2023-02-26T11:44:35.916Z,4.70
2023-02-26T11:47:06.916Z,4.60
2023-02-26T11:49:35.437Z,4.50
2023-02-26T11:52:16.443Z,4.40
2023-02-26T11:54:47.498Z,4.30
2023-02-26T11:57:19.695Z,4.30
2023-02-26T11:59:50.776Z,4.30
2023-02-26T12:02:22.686Z,4.10
2023-02-26T12:04:53.538Z,4.10
2023-02-26T12:07:23.605Z,4.00
2023-02-26T12:09:51.609Z,4.00
2023-02-26T12:12:43.599Z,3.90
2023-02-26T12:15:23.610Z,4.00
2023-02-26T12:18:17.282Z,4.10
2023-02-26T12:20:53.070Z,4.10
2023-02-26T12:24:00.831Z,4.20
2023-02-26T12:26:33.435Z,4.20
2023-02-26T12:29:15.619Z,4.20
2023-02-26T12:32:08.776Z,4.00
2023-02-26T12:34:59.066Z,3.90
2023-02-26T12:37:39.235Z,3.80
2023-02-26T12:40:23.921Z,3.80
2023-02-26T12:43:00.795Z,3.90
2023-02-26T12:45:43.105Z,3.90
2023-02-26T12:48:58.343Z,3.90
2023-02-26T12:51:39.164Z,4.10
2023-02-26T12:54:18.184Z,4.20
2023-02-26T12:57:18.736Z,4.30
2023-02-26T13:00:13.810Z,4.40
2023-02-26T13:03:27.475Z,4.50
2023-02-26T13:06:24.999Z,4.40
2023-02-26T13:09:03.371Z,4.30
2023-02-26T13:11:45.007Z,4.50
2023-02-26T13:14:29.354Z,4.60
2023-02-26T13:17:07.716Z,4.70
2023-02-26T13:19:43.469Z,4.60
2023-02-26T13:22:19.693Z,4.50
2023-02-26T13:24:54.006Z,4.50
2023-02-26T13:27:26.779Z,4.50
2023-02-26T13:30:11.195Z,4.60
2023-02-26T13:32:43.122Z,4.60
2023-02-26T13:35:26.056Z,4.70
2023-02-26T13:37:56.874Z,4.70
2023-02-26T13:40:44.812Z,4.60
2023-02-26T13:43:35.030Z,4.50
2023-02-26T13:46:17.418Z,4.50
2023-02-26T13:48:55.403Z,4.40
2023-02-26T13:51:31.926Z,4.50
2023-02-26T13:54:02.099Z,4.60
2023-02-26T13:57:06.188Z,4.70
2023-02-26T13:59:47.554Z,4.70
2023-02-26T14:02:51.825Z,4.60
2023-02-26T14:05:56.109Z,4.50
2023-02-26T14:08:43.218Z,4.40
2023-02-26T14:11:39.732Z,4.40
2023-02-26T14:14:13.529Z,4.50
2023-02-26T14:16:44.450Z,4.40
2023-02-26T14:19:27.206Z,4.40
2023-02-26T14:21:58.873Z,4.30
2023-02-26T14:24:36.872Z,4.40
2023-02-26T14:27:32.705Z,4.40
2023-02-26T14:30:18.614Z,4.50
2023-02-26T14:32:49.943Z,4.50
2023-02-26T14:35:21.725Z,4.50
2023-02-26T14:37:58.951Z,4.50
2023-02-26T14:40:27.583Z,4.40
2023-02-26T14:43:00.296Z,4.40
2023-02-26T14:45:31.896Z,4.40
2023-02-26T14:48:02.491Z,4.40
2023-02-26T14:50:37.903Z,4.30
2023-02-26T14:53:29.782Z,4.20
2023-02-26T14:56:07.436Z,4.20
2023-02-26T14:58:52.962Z,4.20
2023-02-26T15:01:38.114Z,4.00
2023-02-26T15:04:43.905Z,4.00
2023-02-26T15:07:33.692Z,4.00
2023-02-26T15:10:18.309Z,3.90
2023-02-26T15:13:01.103Z,3.90
2023-02-26T15:15:44.101Z,3.80
2023-02-26T15:18:55.843Z,3.90
2023-02-26T15:21:33.454Z,3.90
2023-02-26T15:24:01.851Z,3.80
2023-02-26T15:26:33.960Z,3.80
2023-02-26T15:29:05.183Z,3.90
2023-02-26T15:31:36.957Z,3.80
2023-02-26T15:34:05.230Z,3.80
2023-02-26T15:36:33.614Z,3.80
2023-02-26T15:39:03.819Z,3.90
2023-02-26T15:41:33.797Z,3.90
2023-02-26T15:44:10.607Z,3.90
2023-02-26T15:46:41.253Z,3.80
2023-02-26T15:49:13.347Z,3.80
2023-02-26T15:51:42.860Z,3.70
2023-02-26T15:54:17.279Z,3.70
2023-02-26T15:56:48.853Z,3.60
2023-02-26T15:59:20.728Z,3.60
2023-02-26T16:01:50.480Z,3.60
2023-02-26T16:04:21.208Z,3.60
2023-02-26T16:06:51.206Z,3.60
2023-02-26T16:09:20.894Z,3.60
2023-02-26T16:11:50.852Z,3.60
2023-02-26T16:14:23.065Z,3.60
2023-02-26T16:16:54.312Z,3.60
2023-02-26T16:19:34.570Z,3.60
2023-02-26T16:22:07.026Z,3.50
2023-02-26T16:24:36.158Z,3.40
2023-02-26T16:27:09.015Z,3.40
2023-02-26T16:29:38.104Z,3.40
2023-02-26T16:32:08.586Z,3.40
2023-02-26T16:34:41.236Z,3.30
2023-02-26T16:37:21.504Z,3.20
2023-02-26T16:39:53.784Z,3.20
2023-02-26T16:42:34.830Z,3.20
2023-02-26T16:45:17.293Z,3.20
2023-02-26T16:47:46.804Z,3.20
2023-02-26T16:50:19.354Z,3.20
2023-02-26T16:52:54.529Z,3.20
2023-02-26T16:55:23.188Z,3.20
2023-02-26T16:57:52.408Z,3.10
2023-02-26T17:00:30.691Z,3.10
2023-02-26T17:03:01.801Z,3.10
2023-02-26T17:05:34.682Z,3.10
2023-02-26T17:08:16.002Z,3.00
2023-02-26T17:10:48.217Z,3.00
2023-02-26T17:13:20.459Z,3.00
2023-02-26T17:15:49.285Z,3.00
2023-02-26T17:18:17.583Z,3.00
2023-02-26T17:20:46.342Z,3.00
2023-02-26T17:23:16.956Z,3.00
2023-02-26T17:25:47.126Z,3.00
2023-02-26T17:28:20.426Z,2.90
2023-02-26T17:30:48.360Z,2.90
2023-02-26T17:33:16.307Z,2.90
2023-02-26T17:35:44.662Z,2.80
2023-02-26T17:38:13.367Z,2.80
2023-02-26T17:40:42.471Z,2.80
2023-02-26T17:43:11.031Z,2.80
2023-02-26T17:45:42.068Z,2.80
2023-02-26T17:48:12.385Z,2.70
2023-02-26T17:50:46.910Z,2.70
2023-02-26T17:53:15.406Z,2.70
2023-02-26T17:55:43.429Z,2.70
2023-02-26T17:58:16.898Z,2.70
2023-02-26T18:00:49.735Z,2.70
2023-02-26T18:03:18.124Z,2.80
2023-02-26T18:05:46.658Z,2.80
2023-02-26T18:08:20.441Z,2.80
2023-02-26T18:10:48.385Z,2.80
2023-02-26T18:13:16.309Z,2.70
2023-02-26T18:15:44.258Z,2.70
2023-02-26T18:18:14.537Z,2.70
2023-02-26T18:20:43.983Z,2.60
2023-02-26T18:23:13.675Z,2.60
2023-02-26T18:25:42.638Z,2.60
2023-02-26T18:28:16.286Z,2.50
2023-02-26T18:30:46.421Z,2.50
2023-02-26T18:33:16.973Z,2.50
2023-02-26T18:35:47.123Z,2.50
2023-02-26T18:38:16.400Z,2.40
2023-02-26T18:40:45.490Z,2.40
2023-02-26T18:43:13.591Z,2.30
2023-02-26T18:45:42.526Z,2.30
2023-02-26T18:48:12.739Z,2.30
2023-02-26T18:50:42.048Z,2.20
2023-02-26T18:53:10.069Z,2.20
2023-02-26T18:55:38.191Z,2.20
2023-02-26T18:58:06.302Z,2.20
2023-02-26T19:00:34.560Z,2.10
2023-02-26T19:03:02.810Z,2.10
2023-02-26T19:05:31.008Z,2.10
2023-02-26T19:08:01.012Z,2.10
2023-02-26T19:10:31.464Z,2.10
2023-02-26T19:12:59.494Z,2.10
2023-02-26T19:15:27.513Z,2.10
2023-02-26T19:17:55.494Z,2.00
2023-02-26T19:20:23.732Z,1.90
2023-02-26T19:22:51.643Z,1.90
2023-02-26T19:25:24.454Z,1.80
2023-02-26T19:27:53.297Z,1.80
2023-02-26T19:30:21.752Z,1.70
2023-02-26T19:32:49.950Z,1.70
2023-02-26T19:35:18.318Z,1.70
2023-02-26T19:37:46.461Z,1.70
2023-02-26T19:40:16.897Z,1.60
2023-02-26T19:42:46.706Z,1.60
2023-02-26T19:45:15.709Z,1.50
2023-02-26T19:47:43.682Z,1.50
2023-02-26T19:50:14.108Z,1.50
2023-02-26T19:52:42.084Z,1.40
2023-02-26T19:55:11.250Z,1.40
2023-02-26T19:57:39.303Z,1.40
2023-02-26T20:00:10.127Z,1.40
2023-02-26T20:02:38.042Z,1.40
2023-02-26T20:05:07.512Z,1.40
2023-02-26T20:07:36.197Z,1.30
2023-02-26T20:10:04.450Z,1.30
2023-02-26T20:12:32.412Z,1.20
2023-02-26T20:15:00.357Z,1.20
2023-02-26T20:17:29.574Z,1.20
2023-02-26T20:19:57.408Z,1.10
2023-02-26T20:22:26.182Z,1.10
2023-02-26T20:24:54.116Z,1.00
2023-02-26T20:27:22.134Z,1.00
2023-02-26T20:29:50.951Z,0.90
2023-02-26T20:32:19.313Z,0.90
2023-02-26T20:34:48.951Z,0.90
2023-02-26T20:37:16.937Z,0.80
2023-02-26T20:39:44.897Z,0.80
2023-02-26T20:42:13.225Z,0.70
2023-02-26T20:44:41.217Z,0.70
2023-02-26T20:47:09.156Z,0.70
2023-02-26T20:49:37.654Z,0.70
2023-02-26T20:52:07.228Z,0.70
2023-02-26T20:54:35.116Z,0.70
2023-02-26T20:57:04.073Z,0.70
2023-02-26T20:59:32.126Z,0.70
2023-02-26T21:02:00.183Z,0.70
2023-02-26T21:04:30.316Z,0.70
2023-02-26T21:07:13.149Z,0.60
2023-02-26T21:09:43.874Z,0.60
2023-02-26T21:12:11.945Z,0.60
2023-02-26T21:14:39.874Z,0.60
2023-02-26T21:17:08.011Z,0.50
2023-02-26T21:19:36.122Z,0.50
2023-02-26T21:22:04.205Z,0.50
2023-02-26T21:24:32.232Z,0.40
2023-02-26T21:27:01.485Z,0.40
2023-02-26T21:29:29.536Z,0.40
2023-02-26T21:31:59.858Z,0.40
2023-02-26T21:34:33.730Z,0.30
2023-02-26T21:37:02.234Z,0.30
2023-02-26T21:39:30.623Z,0.30
2023-02-26T21:41:59.243Z,0.20
2023-02-26T21:44:28.976Z,0.20
2023-02-26T21:46:58.338Z,0.10
2023-02-26T21:49:26.498Z,0.10
2023-02-26T21:51:54.667Z,0.00
2023-02-26T21:54:22.986Z,0.10
2023-02-26T21:56:51.779Z,0.00
2023-02-26T21:59:19.908Z,0.00
2023-02-26T22:01:49.122Z,0.00
2023-02-26T22:04:17.100Z,0.00
2023-02-26T22:06:44.966Z,0.00
2023-02-26T22:09:13.195Z,0.00
2023-02-26T22:11:41.322Z,0.00
2023-02-26T22:14:09.173Z,0.00
2023-02-26T22:16:37.184Z,0.00
2023-02-26T22:19:06.454Z,0.00
2023-02-26T22:21:34.312Z,0.00
2023-02-26T22:24:03.690Z,0.00
2023-02-26T22:26:31.819Z,0.00
2023-02-26T22:29:00.694Z,-0.10
2023-02-26T22:31:29.602Z,-0.10
2023-02-26T22:33:57.764Z,-0.10
2023-02-26T22:36:27.453Z,-0.10
2023-02-26T22:38:55.270Z,-0.10
2023-02-26T22:41:23.627Z,-0.10
2023-02-26T22:43:54.024Z,-0.20
2023-02-26T22:46:24.324Z,-0.20
2023-02-26T22:48:52.582Z,-0.20
2023-02-26T22:51:20.490Z,-0.20
2023-02-26T22:53:49.956Z,-0.20
2023-02-26T22:56:18.220Z,-0.20
2023-02-26T22:58:46.568Z,-0.20
2023-02-26T23:01:14.546Z,-0.30
2023-02-26T23:03:42.380Z,-0.30
2023-02-26T23:06:10.495Z,-0.30
2023-02-26T23:08:38.713Z,-0.30
2023-02-26T23:11:08.846Z,-0.30
2023-02-26T23:13:38.117Z,-0.40
2023-02-26T23:16:09.330Z,-0.40
2023-02-26T23:18:37.449Z,-0.40
2023-02-26T23:21:06.539Z,-0.40
2023-02-26T23:23:34.702Z,-0.40
2023-02-26T23:26:02.595Z,-0.40
2023-02-26T23:28:32.107Z,-0.50
2023-02-26T23:31:00.166Z,-0.50
2023-02-26T23:33:28.206Z,-0.50
2023-02-26T23:35:56.334Z,-0.50
2023-02-26T23:38:24.319Z,-0.50
2023-02-26T23:40:52.212Z,-0.50
2023-02-26T23:43:20.237Z,-0.50
2023-02-26T23:45:49.537Z,-0.50
2023-02-26T23:48:17.508Z,-0.50
2023-02-26T23:50:45.392Z,-0.60
2023-02-26T23:53:13.309Z,-0.60
2023-02-26T23:55:41.264Z,-0.60
2023-02-26T23:58:09.490Z,-0.70
